Main page
METAR-TAF:

METAR-TAF

Airports :

Cranfield Airport

Cranfield, England

latitude: 52-04N, longitude: 000-37W, elevation: 111 m

Current weather observation

The report was made 4 hours and 14 minutes ago, at 16:50 UTC
Wind 12 kt from the South, varying between South/Southeast and Southwest
Temperature 19°C
Humidity 46%
Pressure 1007 hPa
Visibility 10 km or more
Scattered clouds at a height of 4800 ft

METAR: EGTC 251650Z 19012KT 150V220 9999 SCT048 19/07 Q1007

Time: 22:04 (21:04 UTC)

Forecast

The report was made 7 hours and 5 minutes ago, at 13:59 UTC
Forecast valid from 25 at 15 UTC to 25 at 17 UTC
Wind 11 kt from the South
Visibility 10 km or more
Few clouds at a height of 4500 ft
Probability 30% :
Temporary
from 25 at 15 UTC to 25 at 17 UTC
Wind 16 kt from the South/Southwest with gusts up to 27 kt

TAF: EGTC 251359Z 2515/2517 19011KT 9999 FEW045 PROB30 TEMPO 2515/2517 20016G27KT

Weather observations and forecasts of more than 4000 airports (METAR and TAF reports).

The available stations are represented by yellow and red dots on the map.

Hover mouse over dot to see the name of the station.

Then click to see weather observations and forecasts.

To change the map : click on the green buttons with a black cross to zoom in, on the green button with a dash to zoom out, or on the green arrows for adjacent maps.


METAR-TAF: